sensor_id;sensor_type;location;lat;lon;timestamp;P1;durP1;ratioP1;P2;durP2;ratioP2
31638;SDS011;18248;51.522;7.020;2023-10-09T00:01:36;10.25;;;5.90;;
31638;SDS011;18248;51.522;7.020;2023-10-09T00:04:36;12.52;;;6.47;;
31638;SDS011;18248;51.522;7.020;2023-10-09T00:07:40;10.82;;;6.68;;
31638;SDS011;18248;51.522;7.020;2023-10-09T00:10:40;13.70;;;6.57;;
31638;SDS011;18248;51.522;7.020;2023-10-09T00:13:51;18.35;;;9.00;;
31638;SDS011;18248;51.522;7.020;2023-10-09T00:16:55;14.65;;;7.93;;
31638;SDS011;18248;51.522;7.020;2023-10-09T00:20:01;20.50;;;9.00;;
31638;SDS011;18248;51.522;7.020;2023-10-09T00:23:15;16.27;;;7.60;;
31638;SDS011;18248;51.522;7.020;2023-10-09T00:26:14;13.32;;;7.10;;
31638;SDS011;18248;51.522;7.020;2023-10-09T00:29:15;16.13;;;7.25;;
31638;SDS011;18248;51.522;7.020;2023-10-09T00:32:20;11.88;;;6.38;;
31638;SDS011;18248;51.522;7.020;2023-10-09T00:35:24;14.63;;;7.43;;
31638;SDS011;18248;51.522;7.020;2023-10-09T00:38:42;21.40;;;10.55;;
31638;SDS011;18248;51.522;7.020;2023-10-09T00:41:44;35.13;;;14.15;;
31638;SDS011;18248;51.522;7.020;2023-10-09T00:44:43;20.73;;;10.77;;
31638;SDS011;18248;51.522;7.020;2023-10-09T00:47:42;18.90;;;10.60;;
31638;SDS011;18248;51.522;7.020;2023-10-09T00:50:41;26.63;;;12.40;;
31638;SDS011;18248;51.522;7.020;2023-10-09T00:53:54;22.30;;;11.70;;
31638;SDS011;18248;51.522;7.020;2023-10-09T00:57:04;25.25;;;10.98;;
31638;SDS011;18248;51.522;7.020;2023-10-09T01:00:05;25.25;;;12.80;;
31638;SDS011;18248;51.522;7.020;2023-10-09T01:03:21;32.63;;;15.30;;
31638;SDS011;18248;51.522;7.020;2023-10-09T01:06:20;25.52;;;13.68;;
31638;SDS011;18248;51.522;7.020;2023-10-09T01:09:19;31.98;;;14.32;;
31638;SDS011;18248;51.522;7.020;2023-10-09T01:12:21;32.00;;;13.68;;
31638;SDS011;18248;51.522;7.020;2023-10-09T01:15:19;28.27;;;13.18;;
31638;SDS011;18248;51.522;7.020;2023-10-09T01:18:34;24.92;;;13.50;;
31638;SDS011;18248;51.522;7.020;2023-10-09T01:21:36;30.92;;;13.68;;
31638;SDS011;18248;51.522;7.020;2023-10-09T01:24:37;26.40;;;12.30;;
31638;SDS011;18248;51.522;7.020;2023-10-09T01:27:36;27.33;;;13.35;;
31638;SDS011;18248;51.522;7.020;2023-10-09T01:30:38;20.15;;;12.35;;
31638;SDS011;18248;51.522;7.020;2023-10-09T01:33:39;23.65;;;12.93;;
31638;SDS011;18248;51.522;7.020;2023-10-09T01:36:39;25.20;;;13.23;;
31638;SDS011;18248;51.522;7.020;2023-10-09T01:39:39;23.10;;;12.07;;
31638;SDS011;18248;51.522;7.020;2023-10-09T01:42:39;21.15;;;11.50;;
31638;SDS011;18248;51.522;7.020;2023-10-09T01:48:44;31.35;;;13.60;;
31638;SDS011;18248;51.522;7.020;2023-10-09T01:51:44;24.40;;;12.43;;
31638;SDS011;18248;51.522;7.020;2023-10-09T01:54:43;24.05;;;12.90;;
31638;SDS011;18248;51.522;7.020;2023-10-09T01:57:47;22.10;;;12.95;;
31638;SDS011;18248;51.522;7.020;2023-10-09T02:00:45;28.85;;;13.35;;
31638;SDS011;18248;51.522;7.020;2023-10-09T02:03:47;27.63;;;13.00;;
31638;SDS011;18248;51.522;7.020;2023-10-09T02:06:49;30.90;;;12.80;;
31638;SDS011;18248;51.522;7.020;2023-10-09T02:09:50;26.42;;;12.55;;
31638;SDS011;18248;51.522;7.020;2023-10-09T02:12:49;29.20;;;13.63;;
31638;SDS011;18248;51.522;7.020;2023-10-09T02:15:57;25.05;;;13.90;;
31638;SDS011;18248;51.522;7.020;2023-10-09T02:19:12;28.33;;;13.30;;
31638;SDS011;18248;51.522;7.020;2023-10-09T02:22:29;27.60;;;13.95;;
31638;SDS011;18248;51.522;7.020;2023-10-09T02:25:32;27.10;;;13.37;;
31638;SDS011;18248;51.522;7.020;2023-10-09T02:28:33;30.30;;;14.32;;
31638;SDS011;18248;51.522;7.020;2023-10-09T02:31:33;29.98;;;14.23;;
31638;SDS011;18248;51.522;7.020;2023-10-09T02:34:38;30.40;;;14.75;;
31638;SDS011;18248;51.522;7.020;2023-10-09T02:37:37;24.15;;;13.63;;
31638;SDS011;18248;51.522;7.020;2023-10-09T02:40:35;26.35;;;12.25;;
31638;SDS011;18248;51.522;7.020;2023-10-09T02:43:53;25.15;;;13.02;;
31638;SDS011;18248;51.522;7.020;2023-10-09T02:46:53;29.88;;;15.63;;
31638;SDS011;18248;51.522;7.020;2023-10-09T02:49:55;33.45;;;14.50;;
31638;SDS011;18248;51.522;7.020;2023-10-09T02:55:59;23.92;;;12.25;;
31638;SDS011;18248;51.522;7.020;2023-10-09T02:59:10;24.05;;;12.75;;
31638;SDS011;18248;51.522;7.020;2023-10-09T03:02:08;30.13;;;14.27;;
31638;SDS011;18248;51.522;7.020;2023-10-09T03:05:09;30.02;;;14.95;;
31638;SDS011;18248;51.522;7.020;2023-10-09T03:08:10;33.00;;;14.73;;
31638;SDS011;18248;51.522;7.020;2023-10-09T03:11:11;22.90;;;12.13;;
31638;SDS011;18248;51.522;7.020;2023-10-09T03:14:11;24.02;;;11.60;;
31638;SDS011;18248;51.522;7.020;2023-10-09T03:17:10;28.70;;;14.63;;
31638;SDS011;18248;51.522;7.020;2023-10-09T03:20:11;26.02;;;13.63;;
31638;SDS011;18248;51.522;7.020;2023-10-09T03:23:10;23.10;;;11.77;;
31638;SDS011;18248;51.522;7.020;2023-10-09T03:26:12;25.52;;;13.20;;
31638;SDS011;18248;51.522;7.020;2023-10-09T03:29:10;25.38;;;12.35;;
31638;SDS011;18248;51.522;7.020;2023-10-09T03:32:09;25.17;;;13.02;;
31638;SDS011;18248;51.522;7.020;2023-10-09T03:35:09;26.95;;;12.63;;
31638;SDS011;18248;51.522;7.020;2023-10-09T03:38:12;23.97;;;12.80;;
31638;SDS011;18248;51.522;7.020;2023-10-09T03:41:14;25.65;;;12.50;;
31638;SDS011;18248;51.522;7.020;2023-10-09T03:44:15;24.95;;;11.38;;
31638;SDS011;18248;51.522;7.020;2023-10-09T03:47:16;28.35;;;14.32;;
31638;SDS011;18248;51.522;7.020;2023-10-09T03:50:18;21.67;;;12.00;;
31638;SDS011;18248;51.522;7.020;2023-10-09T03:53:24;23.27;;;12.15;;
31638;SDS011;18248;51.522;7.020;2023-10-09T03:56:23;21.52;;;11.38;;
31638;SDS011;18248;51.522;7.020;2023-10-09T03:59:22;24.65;;;11.20;;
31638;SDS011;18248;51.522;7.020;2023-10-09T04:02:20;22.20;;;11.05;;
31638;SDS011;18248;51.522;7.020;2023-10-09T04:05:20;23.02;;;12.35;;
31638;SDS011;18248;51.522;7.020;2023-10-09T04:08:19;24.58;;;11.45;;
31638;SDS011;18248;51.522;7.020;2023-10-09T04:11:27;20.55;;;11.07;;
31638;SDS011;18248;51.522;7.020;2023-10-09T04:14:26;26.90;;;11.80;;
31638;SDS011;18248;51.522;7.020;2023-10-09T04:17:31;26.02;;;12.85;;
31638;SDS011;18248;51.522;7.020;2023-10-09T04:20:32;26.05;;;11.38;;
31638;SDS011;18248;51.522;7.020;2023-10-09T04:23:31;25.52;;;11.23;;
31638;SDS011;18248;51.522;7.020;2023-10-09T04:26:33;23.17;;;11.30;;
31638;SDS011;18248;51.522;7.020;2023-10-09T04:29:33;24.60;;;11.15;;
31638;SDS011;18248;51.522;7.020;2023-10-09T04:32:37;23.35;;;11.30;;
31638;SDS011;18248;51.522;7.020;2023-10-09T04:35:38;24.55;;;11.18;;
31638;SDS011;18248;51.522;7.020;2023-10-09T04:38:36;20.63;;;10.95;;
31638;SDS011;18248;51.522;7.020;2023-10-09T04:41:35;18.83;;;10.70;;
31638;SDS011;18248;51.522;7.020;2023-10-09T04:44:40;23.67;;;11.07;;
31638;SDS011;18248;51.522;7.020;2023-10-09T04:47:57;23.50;;;10.75;;
31638;SDS011;18248;51.522;7.020;2023-10-09T04:50:56;25.75;;;11.82;;
31638;SDS011;18248;51.522;7.020;2023-10-09T04:54:13;22.70;;;10.73;;
31638;SDS011;18248;51.522;7.020;2023-10-09T04:57:11;21.67;;;10.55;;
31638;SDS011;18248;51.522;7.020;2023-10-09T05:00:16;18.15;;;9.95;;
31638;SDS011;18248;51.522;7.020;2023-10-09T05:03:41;20.13;;;10.65;;
31638;SDS011;18248;51.522;7.020;2023-10-09T05:06:40;21.90;;;10.65;;
31638;SDS011;18248;51.522;7.020;2023-10-09T05:09:52;22.95;;;11.50;;
31638;SDS011;18248;51.522;7.020;2023-10-09T05:12:53;20.90;;;11.18;;
31638;SDS011;18248;51.522;7.020;2023-10-09T05:15:55;21.00;;;9.40;;
31638;SDS011;18248;51.522;7.020;2023-10-09T05:18:56;16.38;;;9.77;;
31638;SDS011;18248;51.522;7.020;2023-10-09T05:21:55;18.48;;;10.40;;
31638;SDS011;18248;51.522;7.020;2023-10-09T05:25:03;20.02;;;9.95;;
31638;SDS011;18248;51.522;7.020;2023-10-09T05:28:14;19.77;;;9.68;;
31638;SDS011;18248;51.522;7.020;2023-10-09T05:31:46;22.05;;;11.07;;
31638;SDS011;18248;51.522;7.020;2023-10-09T05:35:03;27.73;;;11.90;;
31638;SDS011;18248;51.522;7.020;2023-10-09T05:38:06;23.98;;;9.40;;
31638;SDS011;18248;51.522;7.020;2023-10-09T05:41:13;18.00;;;10.43;;
31638;SDS011;18248;51.522;7.020;2023-10-09T05:44:43;22.42;;;11.50;;
31638;SDS011;18248;51.522;7.020;2023-10-09T05:48:11;22.85;;;12.00;;
31638;SDS011;18248;51.522;7.020;2023-10-09T05:51:16;22.73;;;11.13;;
31638;SDS011;18248;51.522;7.020;2023-10-09T05:54:39;20.77;;;11.57;;
31638;SDS011;18248;51.522;7.020;2023-10-09T05:58:13;18.48;;;10.20;;
31638;SDS011;18248;51.522;7.020;2023-10-09T06:04:54;22.05;;;9.90;;
31638;SDS011;18248;51.522;7.020;2023-10-09T06:07:53;20.17;;;11.48;;
31638;SDS011;18248;51.522;7.020;2023-10-09T06:11:06;21.08;;;10.57;;
31638;SDS011;18248;51.522;7.020;2023-10-09T06:14:24;24.58;;;9.80;;
31638;SDS011;18248;51.522;7.020;2023-10-09T06:17:29;27.17;;;12.15;;
31638;SDS011;18248;51.522;7.020;2023-10-09T06:20:41;24.23;;;11.52;;
31638;SDS011;18248;51.522;7.020;2023-10-09T06:23:58;25.75;;;13.05;;
31638;SDS011;18248;51.522;7.020;2023-10-09T06:27:15;26.02;;;13.32;;
31638;SDS011;18248;51.522;7.020;2023-10-09T06:30:29;21.27;;;11.75;;
31638;SDS011;18248;51.522;7.020;2023-10-09T06:33:32;28.60;;;13.80;;
31638;SDS011;18248;51.522;7.020;2023-10-09T06:36:51;22.00;;;10.93;;
31638;SDS011;18248;51.522;7.020;2023-10-09T06:39:53;30.05;;;12.77;;
31638;SDS011;18248;51.522;7.020;2023-10-09T06:42:53;22.85;;;10.52;;
31638;SDS011;18248;51.522;7.020;2023-10-09T06:45:53;28.73;;;12.90;;
31638;SDS011;18248;51.522;7.020;2023-10-09T06:48:55;20.60;;;10.85;;
31638;SDS011;18248;51.522;7.020;2023-10-09T06:51:54;22.73;;;11.90;;
31638;SDS011;18248;51.522;7.020;2023-10-09T06:55:11;22.55;;;11.73;;
31638;SDS011;18248;51.522;7.020;2023-10-09T06:58:21;23.13;;;11.75;;
31638;SDS011;18248;51.522;7.020;2023-10-09T07:01:39;23.20;;;11.80;;
31638;SDS011;18248;51.522;7.020;2023-10-09T07:04:40;23.50;;;12.07;;
31638;SDS011;18248;51.522;7.020;2023-10-09T07:07:39;21.15;;;10.95;;
31638;SDS011;18248;51.522;7.020;2023-10-09T07:10:48;22.08;;;11.77;;
31638;SDS011;18248;51.522;7.020;2023-10-09T07:14:00;21.92;;;10.30;;
31638;SDS011;18248;51.522;7.020;2023-10-09T07:17:01;27.30;;;12.95;;
31638;SDS011;18248;51.522;7.020;2023-10-09T07:20:22;20.02;;;11.90;;
31638;SDS011;18248;51.522;7.020;2023-10-09T07:23:41;20.95;;;12.10;;
31638;SDS011;18248;51.522;7.020;2023-10-09T07:26:47;23.33;;;12.52;;
31638;SDS011;18248;51.522;7.020;2023-10-09T07:29:45;24.20;;;12.75;;
31638;SDS011;18248;51.522;7.020;2023-10-09T07:32:47;25.25;;;12.15;;
31638;SDS011;18248;51.522;7.020;2023-10-09T07:35:46;26.02;;;12.55;;
31638;SDS011;18248;51.522;7.020;2023-10-09T07:38:46;27.00;;;13.02;;
31638;SDS011;18248;51.522;7.020;2023-10-09T07:41:53;24.92;;;13.55;;
31638;SDS011;18248;51.522;7.020;2023-10-09T07:45:00;28.80;;;13.35;;
31638;SDS011;18248;51.522;7.020;2023-10-09T07:48:10;21.75;;;12.25;;
31638;SDS011;18248;51.522;7.020;2023-10-09T07:51:12;22.65;;;12.55;;
31638;SDS011;18248;51.522;7.020;2023-10-09T07:54:11;30.88;;;13.15;;
31638;SDS011;18248;51.522;7.020;2023-10-09T07:57:12;24.15;;;12.70;;
31638;SDS011;18248;51.522;7.020;2023-10-09T08:00:23;28.45;;;13.73;;
31638;SDS011;18248;51.522;7.020;2023-10-09T08:03:34;29.13;;;10.80;;
31638;SDS011;18248;51.522;7.020;2023-10-09T08:06:33;23.70;;;12.45;;
31638;SDS011;18248;51.522;7.020;2023-10-09T08:09:37;21.58;;;11.75;;
31638;SDS011;18248;51.522;7.020;2023-10-09T08:12:59;23.20;;;12.00;;
31638;SDS011;18248;51.522;7.020;2023-10-09T08:16:19;21.70;;;11.40;;
31638;SDS011;18248;51.522;7.020;2023-10-09T08:19:22;21.63;;;12.38;;
31638;SDS011;18248;51.522;7.020;2023-10-09T08:22:32;25.83;;;12.88;;
31638;SDS011;18248;51.522;7.020;2023-10-09T08:25:50;25.55;;;13.10;;
31638;SDS011;18248;51.522;7.020;2023-10-09T08:29:08;28.67;;;13.27;;
31638;SDS011;18248;51.522;7.020;2023-10-09T08:32:17;23.25;;;12.45;;
31638;SDS011;18248;51.522;7.020;2023-10-09T08:35:16;24.92;;;13.10;;
31638;SDS011;18248;51.522;7.020;2023-10-09T08:38:27;26.55;;;12.23;;
31638;SDS011;18248;51.522;7.020;2023-10-09T08:41:31;19.50;;;11.45;;
31638;SDS011;18248;51.522;7.020;2023-10-09T08:44:29;28.77;;;14.32;;
31638;SDS011;18248;51.522;7.020;2023-10-09T08:47:30;29.70;;;15.07;;
31638;SDS011;18248;51.522;7.020;2023-10-09T08:50:29;28.73;;;12.95;;
31638;SDS011;18248;51.522;7.020;2023-10-09T08:53:28;28.77;;;14.07;;
31638;SDS011;18248;51.522;7.020;2023-10-09T08:56:29;27.23;;;14.20;;
31638;SDS011;18248;51.522;7.020;2023-10-09T08:59:28;27.98;;;14.20;;
31638;SDS011;18248;51.522;7.020;2023-10-09T09:02:28;28.77;;;13.88;;
31638;SDS011;18248;51.522;7.020;2023-10-09T09:05:26;21.40;;;12.45;;
31638;SDS011;18248;51.522;7.020;2023-10-09T09:08:27;23.92;;;11.85;;
31638;SDS011;18248;51.522;7.020;2023-10-09T09:18:24;29.52;;;10.35;;
31638;SDS011;18248;51.522;7.020;2023-10-09T09:21:29;27.90;;;12.82;;
31638;SDS011;18248;51.522;7.020;2023-10-09T09:24:36;24.75;;;12.68;;
31638;SDS011;18248;51.522;7.020;2023-10-09T09:27:44;28.38;;;13.25;;
31638;SDS011;18248;51.522;7.020;2023-10-09T09:30:53;29.15;;;13.43;;
31638;SDS011;18248;51.522;7.020;2023-10-09T09:33:56;23.15;;;11.15;;
31638;SDS011;18248;51.522;7.020;2023-10-09T09:37:01;34.83;;;14.27;;
31638;SDS011;18248;51.522;7.020;2023-10-09T09:40:03;23.83;;;12.15;;
31638;SDS011;18248;51.522;7.020;2023-10-09T09:43:27;26.25;;;12.45;;
31638;SDS011;18248;51.522;7.020;2023-10-09T09:46:33;23.02;;;11.23;;
31638;SDS011;18248;51.522;7.020;2023-10-09T09:49:32;20.05;;;10.18;;
31638;SDS011;18248;51.522;7.020;2023-10-09T09:52:31;24.15;;;11.75;;
31638;SDS011;18248;51.522;7.020;2023-10-09T09:55:38;22.88;;;12.20;;
31638;SDS011;18248;51.522;7.020;2023-10-09T09:58:40;22.00;;;11.88;;
31638;SDS011;18248;51.522;7.020;2023-10-09T10:01:41;22.83;;;12.60;;
31638;SDS011;18248;51.522;7.020;2023-10-09T10:04:40;26.00;;;11.90;;
31638;SDS011;18248;51.522;7.020;2023-10-09T10:10:47;25.02;;;11.02;;
31638;SDS011;18248;51.522;7.020;2023-10-09T10:13:56;26.33;;;12.00;;
31638;SDS011;18248;51.522;7.020;2023-10-09T10:17:06;26.95;;;11.25;;
31638;SDS011;18248;51.522;7.020;2023-10-09T10:20:14;24.85;;;12.70;;
31638;SDS011;18248;51.522;7.020;2023-10-09T10:26:19;23.35;;;12.45;;
31638;SDS011;18248;51.522;7.020;2023-10-09T10:29:23;27.58;;;12.50;;
31638;SDS011;18248;51.522;7.020;2023-10-09T10:32:24;22.17;;;10.65;;
31638;SDS011;18248;51.522;7.020;2023-10-09T10:35:51;26.60;;;11.18;;
31638;SDS011;18248;51.522;7.020;2023-10-09T10:38:59;25.80;;;11.48;;
31638;SDS011;18248;51.522;7.020;2023-10-09T10:42:02;24.20;;;12.85;;
31638;SDS011;18248;51.522;7.020;2023-10-09T10:45:03;31.83;;;12.85;;
31638;SDS011;18248;51.522;7.020;2023-10-09T10:48:32;20.05;;;10.25;;
31638;SDS011;18248;51.522;7.020;2023-10-09T10:51:37;24.83;;;11.73;;
31638;SDS011;18248;51.522;7.020;2023-10-09T10:54:36;22.77;;;10.85;;
31638;SDS011;18248;51.522;7.020;2023-10-09T10:57:35;24.67;;;11.05;;
31638;SDS011;18248;51.522;7.020;2023-10-09T11:00:54;27.30;;;12.98;;
31638;SDS011;18248;51.522;7.020;2023-10-09T11:03:56;21.60;;;10.88;;
31638;SDS011;18248;51.522;7.020;2023-10-09T11:06:55;25.63;;;11.63;;
31638;SDS011;18248;51.522;7.020;2023-10-09T11:10:10;20.88;;;10.32;;
31638;SDS011;18248;51.522;7.020;2023-10-09T11:13:20;23.63;;;11.60;;
31638;SDS011;18248;51.522;7.020;2023-10-09T11:16:28;22.00;;;10.55;;
31638;SDS011;18248;51.522;7.020;2023-10-09T11:19:39;20.55;;;10.18;;
31638;SDS011;18248;51.522;7.020;2023-10-09T11:22:41;21.63;;;10.45;;
31638;SDS011;18248;51.522;7.020;2023-10-09T11:26:00;29.83;;;12.13;;
31638;SDS011;18248;51.522;7.020;2023-10-09T11:29:26;26.23;;;11.25;;
31638;SDS011;18248;51.522;7.020;2023-10-09T11:32:24;23.73;;;12.07;;
31638;SDS011;18248;51.522;7.020;2023-10-09T11:35:24;27.63;;;12.93;;
31638;SDS011;18248;51.522;7.020;2023-10-09T11:38:36;23.20;;;12.00;;
31638;SDS011;18248;51.522;7.020;2023-10-09T11:41:38;19.83;;;11.38;;
31638;SDS011;18248;51.522;7.020;2023-10-09T11:44:40;21.13;;;11.15;;
31638;SDS011;18248;51.522;7.020;2023-10-09T11:47:43;19.88;;;11.07;;
31638;SDS011;18248;51.522;7.020;2023-10-09T11:50:52;22.33;;;10.70;;
31638;SDS011;18248;51.522;7.020;2023-10-09T11:54:03;22.02;;;11.52;;
31638;SDS011;18248;51.522;7.020;2023-10-09T11:57:02;23.70;;;12.07;;
31638;SDS011;18248;51.522;7.020;2023-10-09T12:00:03;31.08;;;13.40;;
31638;SDS011;18248;51.522;7.020;2023-10-09T12:03:08;22.45;;;10.88;;
31638;SDS011;18248;51.522;7.020;2023-10-09T12:06:07;19.77;;;11.52;;
31638;SDS011;18248;51.522;7.020;2023-10-09T12:09:10;26.63;;;12.57;;
31638;SDS011;18248;51.522;7.020;2023-10-09T12:12:22;25.23;;;12.57;;
31638;SDS011;18248;51.522;7.020;2023-10-09T12:15:24;26.15;;;12.88;;
31638;SDS011;18248;51.522;7.020;2023-10-09T12:18:34;24.90;;;12.35;;
31638;SDS011;18248;51.522;7.020;2023-10-09T12:21:34;23.67;;;12.20;;
31638;SDS011;18248;51.522;7.020;2023-10-09T12:24:34;25.63;;;12.02;;
31638;SDS011;18248;51.522;7.020;2023-10-09T12:27:33;24.38;;;11.80;;
31638;SDS011;18248;51.522;7.020;2023-10-09T12:30:31;30.92;;;12.27;;
31638;SDS011;18248;51.522;7.020;2023-10-09T12:33:37;22.85;;;11.73;;
31638;SDS011;18248;51.522;7.020;2023-10-09T12:36:37;23.45;;;12.15;;
31638;SDS011;18248;51.522;7.020;2023-10-09T12:39:36;28.98;;;12.50;;
31638;SDS011;18248;51.522;7.020;2023-10-09T12:42:38;29.65;;;12.30;;
31638;SDS011;18248;51.522;7.020;2023-10-09T12:45:38;23.95;;;11.48;;
31638;SDS011;18248;51.522;7.020;2023-10-09T12:48:37;27.30;;;13.60;;
31638;SDS011;18248;51.522;7.020;2023-10-09T12:51:35;27.40;;;13.80;;
31638;SDS011;18248;51.522;7.020;2023-10-09T12:54:34;25.83;;;13.52;;
31638;SDS011;18248;51.522;7.020;2023-10-09T12:57:35;24.58;;;12.15;;
31638;SDS011;18248;51.522;7.020;2023-10-09T13:00:35;25.75;;;11.77;;
31638;SDS011;18248;51.522;7.020;2023-10-09T13:03:42;22.55;;;11.02;;
31638;SDS011;18248;51.522;7.020;2023-10-09T13:06:41;32.30;;;13.32;;
31638;SDS011;18248;51.522;7.020;2023-10-09T13:09:42;25.30;;;13.73;;
31638;SDS011;18248;51.522;7.020;2023-10-09T13:12:41;25.98;;;14.23;;
31638;SDS011;18248;51.522;7.020;2023-10-09T13:15:40;24.60;;;12.65;;
31638;SDS011;18248;51.522;7.020;2023-10-09T13:18:41;23.17;;;11.73;;
31638;SDS011;18248;51.522;7.020;2023-10-09T13:21:57;26.42;;;11.90;;
31638;SDS011;18248;51.522;7.020;2023-10-09T13:24:55;23.58;;;13.00;;
31638;SDS011;18248;51.522;7.020;2023-10-09T13:28:01;25.85;;;12.65;;
31638;SDS011;18248;51.522;7.020;2023-10-09T13:31:01;25.55;;;12.48;;
31638;SDS011;18248;51.522;7.020;2023-10-09T13:34:02;21.25;;;11.45;;
31638;SDS011;18248;51.522;7.020;2023-10-09T13:37:01;25.65;;;12.15;;
31638;SDS011;18248;51.522;7.020;2023-10-09T13:40:09;35.45;;;19.90;;
31638;SDS011;18248;51.522;7.020;2023-10-09T13:43:09;31.15;;;15.65;;
31638;SDS011;18248;51.522;7.020;2023-10-09T13:46:14;30.52;;;13.93;;
31638;SDS011;18248;51.522;7.020;2023-10-09T13:49:15;31.20;;;13.50;;
31638;SDS011;18248;51.522;7.020;2023-10-09T13:52:14;27.10;;;13.48;;
31638;SDS011;18248;51.522;7.020;2023-10-09T13:55:16;28.60;;;13.50;;
31638;SDS011;18248;51.522;7.020;2023-10-09T13:58:14;21.08;;;11.85;;
31638;SDS011;18248;51.522;7.020;2023-10-09T14:01:18;22.85;;;12.05;;
31638;SDS011;18248;51.522;7.020;2023-10-09T14:04:26;27.25;;;13.82;;
31638;SDS011;18248;51.522;7.020;2023-10-09T14:07:25;26.27;;;13.18;;
31638;SDS011;18248;51.522;7.020;2023-10-09T14:10:23;29.27;;;12.90;;
31638;SDS011;18248;51.522;7.020;2023-10-09T14:13:28;24.20;;;13.52;;
31638;SDS011;18248;51.522;7.020;2023-10-09T14:16:27;31.65;;;13.35;;
31638;SDS011;18248;51.522;7.020;2023-10-09T14:19:26;20.15;;;11.65;;
31638;SDS011;18248;51.522;7.020;2023-10-09T14:22:24;20.98;;;12.95;;
31638;SDS011;18248;51.522;7.020;2023-10-09T14:25:23;28.17;;;12.50;;
31638;SDS011;18248;51.522;7.020;2023-10-09T14:28:21;30.02;;;13.80;;
31638;SDS011;18248;51.522;7.020;2023-10-09T14:31:26;23.30;;;12.18;;
31638;SDS011;18248;51.522;7.020;2023-10-09T14:34:26;27.73;;;15.00;;
31638;SDS011;18248;51.522;7.020;2023-10-09T14:37:33;30.83;;;13.43;;
31638;SDS011;18248;51.522;7.020;2023-10-09T14:40:32;22.38;;;13.60;;
31638;SDS011;18248;51.522;7.020;2023-10-09T14:43:31;29.55;;;13.00;;
31638;SDS011;18248;51.522;7.020;2023-10-09T14:46:31;33.20;;;14.30;;
31638;SDS011;18248;51.522;7.020;2023-10-09T14:49:29;27.45;;;13.90;;
31638;SDS011;18248;51.522;7.020;2023-10-09T14:52:32;23.88;;;13.10;;
31638;SDS011;18248;51.522;7.020;2023-10-09T14:55:31;25.27;;;12.82;;
31638;SDS011;18248;51.522;7.020;2023-10-09T14:58:30;19.13;;;11.80;;
31638;SDS011;18248;51.522;7.020;2023-10-09T15:01:30;23.50;;;12.85;;
31638;SDS011;18248;51.522;7.020;2023-10-09T15:04:29;28.75;;;14.43;;
31638;SDS011;18248;51.522;7.020;2023-10-09T15:07:27;29.48;;;14.07;;
31638;SDS011;18248;51.522;7.020;2023-10-09T15:10:26;38.45;;;16.20;;
31638;SDS011;18248;51.522;7.020;2023-10-09T15:13:26;29.70;;;13.80;;
31638;SDS011;18248;51.522;7.020;2023-10-09T15:16:26;23.60;;;13.05;;
31638;SDS011;18248;51.522;7.020;2023-10-09T15:19:27;28.42;;;14.82;;
31638;SDS011;18248;51.522;7.020;2023-10-09T15:22:29;25.30;;;13.55;;
31638;SDS011;18248;51.522;7.020;2023-10-09T15:25:34;31.88;;;15.20;;
31638;SDS011;18248;51.522;7.020;2023-10-09T15:28:33;30.55;;;17.42;;
31638;SDS011;18248;51.522;7.020;2023-10-09T15:31:32;28.60;;;14.98;;
31638;SDS011;18248;51.522;7.020;2023-10-09T15:34:31;29.15;;;13.93;;
31638;SDS011;18248;51.522;7.020;2023-10-09T15:37:32;30.25;;;14.65;;
31638;SDS011;18248;51.522;7.020;2023-10-09T15:40:30;37.97;;;15.57;;
31638;SDS011;18248;51.522;7.020;2023-10-09T15:43:33;24.50;;;12.85;;
31638;SDS011;18248;51.522;7.020;2023-10-09T15:46:33;28.08;;;14.55;;
31638;SDS011;18248;51.522;7.020;2023-10-09T15:49:32;23.70;;;14.25;;
31638;SDS011;18248;51.522;7.020;2023-10-09T15:52:31;30.80;;;13.00;;
31638;SDS011;18248;51.522;7.020;2023-10-09T15:55:30;39.28;;;16.08;;
31638;SDS011;18248;51.522;7.020;2023-10-09T15:58:31;29.02;;;14.70;;
31638;SDS011;18248;51.522;7.020;2023-10-09T16:01:30;35.22;;;18.10;;
31638;SDS011;18248;51.522;7.020;2023-10-09T16:04:29;29.27;;;15.90;;
31638;SDS011;18248;51.522;7.020;2023-10-09T16:07:31;30.13;;;15.20;;
31638;SDS011;18248;51.522;7.020;2023-10-09T16:10:30;25.55;;;14.25;;
31638;SDS011;18248;51.522;7.020;2023-10-09T16:13:33;28.65;;;16.08;;
31638;SDS011;18248;51.522;7.020;2023-10-09T16:16:32;28.42;;;16.02;;
31638;SDS011;18248;51.522;7.020;2023-10-09T16:19:32;26.13;;;14.10;;
31638;SDS011;18248;51.522;7.020;2023-10-09T16:22:34;30.55;;;14.85;;
31638;SDS011;18248;51.522;7.020;2023-10-09T16:25:33;33.72;;;17.25;;
31638;SDS011;18248;51.522;7.020;2023-10-09T16:28:34;33.00;;;17.25;;
31638;SDS011;18248;51.522;7.020;2023-10-09T16:31:34;29.52;;;14.27;;
31638;SDS011;18248;51.522;7.020;2023-10-09T16:34:33;29.42;;;15.90;;
31638;SDS011;18248;51.522;7.020;2023-10-09T16:37:33;31.85;;;14.07;;
31638;SDS011;18248;51.522;7.020;2023-10-09T16:40:32;33.47;;;16.02;;
31638;SDS011;18248;51.522;7.020;2023-10-09T16:43:31;32.03;;;16.17;;
31638;SDS011;18248;51.522;7.020;2023-10-09T16:46:31;34.65;;;16.25;;
31638;SDS011;18248;51.522;7.020;2023-10-09T16:49:30;31.35;;;15.77;;
31638;SDS011;18248;51.522;7.020;2023-10-09T16:52:29;30.83;;;14.82;;
31638;SDS011;18248;51.522;7.020;2023-10-09T16:55:28;26.27;;;14.07;;
31638;SDS011;18248;51.522;7.020;2023-10-09T16:58:28;26.80;;;14.52;;
31638;SDS011;18248;51.522;7.020;2023-10-09T17:01:26;28.50;;;14.40;;
31638;SDS011;18248;51.522;7.020;2023-10-09T17:07:30;33.33;;;16.38;;
31638;SDS011;18248;51.522;7.020;2023-10-09T17:10:32;33.83;;;15.13;;
31638;SDS011;18248;51.522;7.020;2023-10-09T17:13:32;24.88;;;12.80;;
31638;SDS011;18248;51.522;7.020;2023-10-09T17:16:31;26.60;;;13.48;;
31638;SDS011;18248;51.522;7.020;2023-10-09T17:19:30;22.30;;;12.75;;
31638;SDS011;18248;51.522;7.020;2023-10-09T17:22:30;27.13;;;13.95;;
31638;SDS011;18248;51.522;7.020;2023-10-09T17:25:33;22.23;;;13.23;;
31638;SDS011;18248;51.522;7.020;2023-10-09T17:28:32;27.77;;;14.93;;
31638;SDS011;18248;51.522;7.020;2023-10-09T17:31:30;28.52;;;14.38;;
31638;SDS011;18248;51.522;7.020;2023-10-09T17:34:32;22.65;;;12.93;;
31638;SDS011;18248;51.522;7.020;2023-10-09T17:37:32;24.42;;;12.52;;
31638;SDS011;18248;51.522;7.020;2023-10-09T17:40:32;30.17;;;13.77;;
31638;SDS011;18248;51.522;7.020;2023-10-09T17:43:30;28.85;;;14.43;;
31638;SDS011;18248;51.522;7.020;2023-10-09T17:46:29;23.60;;;13.70;;
31638;SDS011;18248;51.522;7.020;2023-10-09T17:49:28;25.05;;;13.25;;
31638;SDS011;18248;51.522;7.020;2023-10-09T17:52:26;27.90;;;12.80;;
31638;SDS011;18248;51.522;7.020;2023-10-09T17:55:25;20.60;;;10.82;;
31638;SDS011;18248;51.522;7.020;2023-10-09T17:58:23;27.90;;;13.80;;
31638;SDS011;18248;51.522;7.020;2023-10-09T18:01:24;23.52;;;12.18;;
31638;SDS011;18248;51.522;7.020;2023-10-09T18:04:27;23.42;;;11.98;;
31638;SDS011;18248;51.522;7.020;2023-10-09T18:07:33;26.65;;;12.05;;
31638;SDS011;18248;51.522;7.020;2023-10-09T18:10:36;21.70;;;12.77;;
31638;SDS011;18248;51.522;7.020;2023-10-09T18:13:38;23.55;;;11.85;;
31638;SDS011;18248;51.522;7.020;2023-10-09T18:16:37;24.98;;;11.70;;
31638;SDS011;18248;51.522;7.020;2023-10-09T18:19:35;30.38;;;15.30;;
31638;SDS011;18248;51.522;7.020;2023-10-09T18:22:36;27.88;;;14.13;;